sensor_id;sensor_type;location;lat;lon;timestamp;pressure;altitude;pressure_sealevel;temperature;humidity
64668;BME280;51077;42.716;23.344;2023-05-07T00:01:46;95595.63;;;14.63;53.64
64668;BME280;51077;42.716;23.344;2023-05-07T00:04:12;95600.94;;;14.61;53.62
64668;BME280;51077;42.716;23.344;2023-05-07T00:06:38;95593.72;;;14.57;53.61
64668;BME280;51077;42.716;23.344;2023-05-07T00:09:04;95597.34;;;14.52;53.70
64668;BME280;51077;42.716;23.344;2023-05-07T00:11:29;95601.38;;;14.51;53.87
64668;BME280;51077;42.716;23.344;2023-05-07T00:13:55;95597.13;;;14.50;53.86
64668;BME280;51077;42.716;23.344;2023-05-07T00:16:20;95602.44;;;14.48;53.84
64668;BME280;51077;42.716;23.344;2023-05-07T00:18:45;95593.16;;;14.46;53.94
64668;BME280;51077;42.716;23.344;2023-05-07T00:21:11;95588.69;;;14.43;54.32
64668;BME280;51077;42.716;23.344;2023-05-07T00:23:36;95587.97;;;14.42;53.98
64668;BME280;51077;42.716;23.344;2023-05-07T00:26:03;95589.00;;;14.39;54.00
64668;BME280;51077;42.716;23.344;2023-05-07T00:28:28;95584.03;;;14.38;54.12
64668;BME280;51077;42.716;23.344;2023-05-07T00:30:53;95585.31;;;14.37;54.31
64668;BME280;51077;42.716;23.344;2023-05-07T00:33:19;95591.13;;;14.33;53.93
64668;BME280;51077;42.716;23.344;2023-05-07T00:35:45;95588.88;;;14.31;54.12
64668;BME280;51077;42.716;23.344;2023-05-07T00:38:11;95591.44;;;14.29;54.34
64668;BME280;51077;42.716;23.344;2023-05-07T00:40:36;95599.50;;;14.27;54.25
64668;BME280;51077;42.716;23.344;2023-05-07T00:43:02;95598.00;;;14.26;54.36
64668;BME280;51077;42.716;23.344;2023-05-07T00:45:28;95588.03;;;14.23;54.37
64668;BME280;51077;42.716;23.344;2023-05-07T00:47:58;95598.31;;;14.23;54.37
64668;BME280;51077;42.716;23.344;2023-05-07T00:50:25;95596.84;;;14.22;54.33
64668;BME280;51077;42.716;23.344;2023-05-07T00:52:50;95595.34;;;14.21;54.43
64668;BME280;51077;42.716;23.344;2023-05-07T00:55:16;95599.91;;;14.18;54.50
64668;BME280;51077;42.716;23.344;2023-05-07T00:57:42;95594.91;;;14.17;54.46
64668;BME280;51077;42.716;23.344;2023-05-07T01:00:08;95598.97;;;14.16;54.54
64668;BME280;51077;42.716;23.344;2023-05-07T01:02:35;95606.50;;;14.15;54.46
64668;BME280;51077;42.716;23.344;2023-05-07T01:05:03;95599.47;;;14.14;54.62
64668;BME280;51077;42.716;23.344;2023-05-07T01:07:31;95607.53;;;14.12;54.52
64668;BME280;51077;42.716;23.344;2023-05-07T01:09:58;95604.03;;;14.12;54.53
64668;BME280;51077;42.716;23.344;2023-05-07T01:12:25;95602.56;;;14.11;54.86
64668;BME280;51077;42.716;23.344;2023-05-07T01:14:50;95601.78;;;14.10;54.65
64668;BME280;51077;42.716;23.344;2023-05-07T01:17:17;95605.09;;;14.08;54.45
64668;BME280;51077;42.716;23.344;2023-05-07T01:19:42;95603.59;;;14.07;54.58
64668;BME280;51077;42.716;23.344;2023-05-07T01:22:09;95606.13;;;14.05;54.66
64668;BME280;51077;42.716;23.344;2023-05-07T01:24:38;95603.16;;;14.03;54.67
64668;BME280;51077;42.716;23.344;2023-05-07T01:27:04;95601.44;;;14.00;54.70
64668;BME280;51077;42.716;23.344;2023-05-07T01:29:29;95605.25;;;13.97;54.78
64668;BME280;51077;42.716;23.344;2023-05-07T01:31:59;95605.78;;;13.96;54.62
64668;BME280;51077;42.716;23.344;2023-05-07T01:34:27;95609.84;;;13.95;54.94
64668;BME280;51077;42.716;23.344;2023-05-07T01:36:54;95603.34;;;13.92;54.55
64668;BME280;51077;42.716;23.344;2023-05-07T01:39:23;95600.38;;;13.90;54.83
64668;BME280;51077;42.716;23.344;2023-05-07T01:41:49;95595.91;;;13.87;54.88
64668;BME280;51077;42.716;23.344;2023-05-07T01:44:15;95594.41;;;13.86;54.81
64668;BME280;51077;42.716;23.344;2023-05-07T01:46:41;95585.16;;;13.83;54.88
64668;BME280;51077;42.716;23.344;2023-05-07T01:49:07;95594.72;;;13.82;54.77
64668;BME280;51077;42.716;23.344;2023-05-07T01:51:33;95589.72;;;13.81;54.78
64668;BME280;51077;42.716;23.344;2023-05-07T01:53:59;95583.25;;;13.78;54.91
64668;BME280;51077;42.716;23.344;2023-05-07T01:56:25;95587.28;;;13.77;54.66
64668;BME280;51077;42.716;23.344;2023-05-07T01:58:51;95576.53;;;13.74;54.81
64668;BME280;51077;42.716;23.344;2023-05-07T02:01:17;95576.34;;;13.72;54.86
64668;BME280;51077;42.716;23.344;2023-05-07T02:03:43;95563.59;;;13.69;54.72
64668;BME280;51077;42.716;23.344;2023-05-07T02:06:09;95566.66;;;13.65;54.92
64668;BME280;51077;42.716;23.344;2023-05-07T02:08:34;95565.91;;;13.65;54.85
64668;BME280;51077;42.716;23.344;2023-05-07T02:11:00;95570.44;;;13.62;54.73
64668;BME280;51077;42.716;23.344;2023-05-07T02:13:28;95561.22;;;13.60;54.81
64668;BME280;51077;42.716;23.344;2023-05-07T02:15:54;95559.50;;;13.56;54.82
64668;BME280;51077;42.716;23.344;2023-05-07T02:18:19;95559.28;;;13.54;54.86
64668;BME280;51077;42.716;23.344;2023-05-07T02:20:45;95560.53;;;13.53;55.05
64668;BME280;51077;42.716;23.344;2023-05-07T02:23:10;95569.34;;;13.52;55.02
64668;BME280;51077;42.716;23.344;2023-05-07T02:25:36;95560.34;;;13.51;55.01
64668;BME280;51077;42.716;23.344;2023-05-07T02:28:01;95561.38;;;13.48;54.98
64668;BME280;51077;42.716;23.344;2023-05-07T02:30:26;95557.13;;;13.47;54.91
64668;BME280;51077;42.716;23.344;2023-05-07T02:32:52;95559.69;;;13.45;55.27
64668;BME280;51077;42.716;23.344;2023-05-07T02:35:17;95560.19;;;13.44;55.16
64668;BME280;51077;42.716;23.344;2023-05-07T02:37:43;95559.25;;;13.41;55.29
64668;BME280;51077;42.716;23.344;2023-05-07T02:40:09;95553.28;;;13.37;55.47
64668;BME280;51077;42.716;23.344;2023-05-07T02:42:34;95558.06;;;13.37;55.39
64668;BME280;51077;42.716;23.344;2023-05-07T02:45:00;95555.81;;;13.35;55.56
64668;BME280;51077;42.716;23.344;2023-05-07T02:47:25;95555.06;;;13.35;55.62
64668;BME280;51077;42.716;23.344;2023-05-07T02:49:55;95556.84;;;13.32;55.82
64668;BME280;51077;42.716;23.344;2023-05-07T02:52:21;95558.84;;;13.31;55.81
64668;BME280;51077;42.716;23.344;2023-05-07T02:54:46;95564.38;;;13.31;55.92
64668;BME280;51077;42.716;23.344;2023-05-07T02:57:12;95572.44;;;13.29;55.92
64668;BME280;51077;42.716;23.344;2023-05-07T02:59:37;95567.66;;;13.30;56.05
64668;BME280;51077;42.716;23.344;2023-05-07T03:02:02;95570.41;;;13.30;56.07
64668;BME280;51077;42.716;23.344;2023-05-07T03:04:28;95573.91;;;13.30;56.16
64668;BME280;51077;42.716;23.344;2023-05-07T03:06:53;95573.19;;;13.30;56.21
64668;BME280;51077;42.716;23.344;2023-05-07T03:09:18;95570.63;;;13.32;56.23
64668;BME280;51077;42.716;23.344;2023-05-07T03:11:44;95578.16;;;13.31;56.32
64668;BME280;51077;42.716;23.344;2023-05-07T03:14:10;95579.66;;;13.32;56.15
64668;BME280;51077;42.716;23.344;2023-05-07T03:16:35;95578.91;;;13.32;56.14
64668;BME280;51077;42.716;23.344;2023-05-07T03:19:00;95584.41;;;13.32;56.31
64668;BME280;51077;42.716;23.344;2023-05-07T03:21:26;95585.69;;;13.31;56.27
64668;BME280;51077;42.716;23.344;2023-05-07T03:23:51;95582.44;;;13.32;56.21
64668;BME280;51077;42.716;23.344;2023-05-07T03:26:17;95583.16;;;13.33;56.02
64668;BME280;51077;42.716;23.344;2023-05-07T03:28:42;95583.16;;;13.33;56.15
64668;BME280;51077;42.716;23.344;2023-05-07T03:31:08;95587.16;;;13.32;56.15
64668;BME280;51077;42.716;23.344;2023-05-07T03:33:34;95586.66;;;13.33;56.15
64668;BME280;51077;42.716;23.344;2023-05-07T03:36:00;95590.16;;;13.34;56.10
64668;BME280;51077;42.716;23.344;2023-05-07T03:38:25;95595.88;;;13.36;56.13
64668;BME280;51077;42.716;23.344;2023-05-07T03:40:51;95598.63;;;13.36;56.07
64668;BME280;51077;42.716;23.344;2023-05-07T03:43:17;95595.38;;;13.38;55.96
64668;BME280;51077;42.716;23.344;2023-05-07T03:45:42;95602.38;;;13.39;56.03
64668;BME280;51077;42.716;23.344;2023-05-07T03:48:07;95598.34;;;13.40;55.78
64668;BME280;51077;42.716;23.344;2023-05-07T03:50:33;95595.28;;;13.43;55.85
64668;BME280;51077;42.716;23.344;2023-05-07T03:52:58;95601.78;;;13.46;55.74
64668;BME280;51077;42.716;23.344;2023-05-07T03:55:24;95612.06;;;13.45;55.92
64668;BME280;51077;42.716;23.344;2023-05-07T03:57:50;95611.00;;;13.48;55.75
64668;BME280;51077;42.716;23.344;2023-05-07T04:00:16;95609.22;;;13.51;55.60
64668;BME280;51077;42.716;23.344;2023-05-07T04:02:41;95614.66;;;13.56;55.68
64668;BME280;51077;42.716;23.344;2023-05-07T04:05:07;95612.13;;;13.58;55.57
64668;BME280;51077;42.716;23.344;2023-05-07T04:07:32;95616.38;;;13.60;55.49
64668;BME280;51077;42.716;23.344;2023-05-07T04:09:58;95628.31;;;13.68;55.45
64668;BME280;51077;42.716;23.344;2023-05-07T04:12:23;95628.75;;;13.72;55.23
64668;BME280;51077;42.716;23.344;2023-05-07T04:14:48;95634.19;;;13.77;55.20
64668;BME280;51077;42.716;23.344;2023-05-07T04:17:14;95638.84;;;13.82;55.18
64668;BME280;51077;42.716;23.344;2023-05-07T04:19:39;95636.00;;;13.88;55.04
64668;BME280;51077;42.716;23.344;2023-05-07T04:22:10;95646.25;;;13.93;54.89
64668;BME280;51077;42.716;23.344;2023-05-07T04:24:35;95645.91;;;13.97;55.08
64668;BME280;51077;42.716;23.344;2023-05-07T04:27:00;95650.63;;;14.02;54.84
64668;BME280;51077;42.716;23.344;2023-05-07T04:29:26;95654.56;;;14.06;54.74
64668;BME280;51077;42.716;23.344;2023-05-07T04:31:52;95654.78;;;14.08;54.65
64668;BME280;51077;42.716;23.344;2023-05-07T04:34:17;95661.72;;;14.15;54.59
64668;BME280;51077;42.716;23.344;2023-05-07T04:36:43;95653.09;;;14.19;54.45
64668;BME280;51077;42.716;23.344;2023-05-07T04:39:08;95662.06;;;14.25;54.36
64668;BME280;51077;42.716;23.344;2023-05-07T04:41:36;95672.06;;;14.28;54.49
64668;BME280;51077;42.716;23.344;2023-05-07T04:44:01;95662.94;;;14.33;54.44
64668;BME280;51077;42.716;23.344;2023-05-07T04:46:30;95667.06;;;14.40;54.38
64668;BME280;51077;42.716;23.344;2023-05-07T04:48:55;95663.47;;;14.45;54.37
64668;BME280;51077;42.716;23.344;2023-05-07T04:51:21;95663.63;;;14.52;54.10
64668;BME280;51077;42.716;23.344;2023-05-07T04:53:46;95663.75;;;14.60;54.20
64668;BME280;51077;42.716;23.344;2023-05-07T04:56:11;95666.84;;;14.70;53.96
64668;BME280;51077;42.716;23.344;2023-05-07T04:58:37;95666.97;;;14.77;53.94
64668;BME280;51077;42.716;23.344;2023-05-07T05:01:02;95660.81;;;14.85;53.99
64668;BME280;51077;42.716;23.344;2023-05-07T05:03:27;95662.41;;;14.93;53.96
64668;BME280;51077;42.716;23.344;2023-05-07T05:05:53;95657.69;;;15.01;53.76
64668;BME280;51077;42.716;23.344;2023-05-07T05:08:18;95661.84;;;15.08;53.69
64668;BME280;51077;42.716;23.344;2023-05-07T05:10:44;95653.44;;;15.14;53.62
64668;BME280;51077;42.716;23.344;2023-05-07T05:13:09;95658.34;;;15.21;53.52
64668;BME280;51077;42.716;23.344;2023-05-07T05:15:38;95660.69;;;15.30;53.34
64668;BME280;51077;42.716;23.344;2023-05-07T05:18:03;95671.28;;;15.39;53.33
64668;BME280;51077;42.716;23.344;2023-05-07T05:20:28;95660.53;;;15.49;53.21
64668;BME280;51077;42.716;23.344;2023-05-07T05:22:54;95665.84;;;15.60;53.08
64668;BME280;51077;42.716;23.344;2023-05-07T05:25:19;95661.03;;;15.74;52.61
64668;BME280;51077;42.716;23.344;2023-05-07T05:27:44;95661.31;;;15.83;52.62
64668;BME280;51077;42.716;23.344;2023-05-07T05:30:10;95662.38;;;15.94;52.54
64668;BME280;51077;42.716;23.344;2023-05-07T05:32:36;95660.41;;;16.02;52.47
64668;BME280;51077;42.716;23.344;2023-05-07T05:35:02;95665.91;;;16.15;52.21
64668;BME280;51077;42.716;23.344;2023-05-07T05:37:27;95662.84;;;16.26;52.00
64668;BME280;51077;42.716;23.344;2023-05-07T05:39:53;95664.25;;;16.41;51.83
64668;BME280;51077;42.716;23.344;2023-05-07T05:42:20;95664.53;;;16.50;51.61
64668;BME280;51077;42.716;23.344;2023-05-07T05:44:45;95662.22;;;16.62;51.46
64668;BME280;51077;42.716;23.344;2023-05-07T05:47:10;95671.03;;;16.74;51.18
64668;BME280;51077;42.716;23.344;2023-05-07T05:49:36;95665.94;;;16.86;51.06
64668;BME280;51077;42.716;23.344;2023-05-07T05:52:01;95665.63;;;16.97;50.92
64668;BME280;51077;42.716;23.344;2023-05-07T05:54:27;95665.34;;;17.08;50.71
64668;BME280;51077;42.716;23.344;2023-05-07T05:56:52;95664.28;;;17.19;50.54
64668;BME280;51077;42.716;23.344;2023-05-07T05:59:18;95664.72;;;17.30;50.44
64668;BME280;51077;42.716;23.344;2023-05-07T06:01:43;95669.97;;;17.42;50.07
64668;BME280;51077;42.716;23.344;2023-05-07T06:04:08;95669.63;;;17.53;49.96
64668;BME280;51077;42.716;23.344;2023-05-07T06:06:34;95671.88;;;17.62;49.60
64668;BME280;51077;42.716;23.344;2023-05-07T06:08:59;95672.09;;;17.72;49.49
64668;BME280;51077;42.716;23.344;2023-05-07T06:11:25;95669.59;;;17.81;49.33
64668;BME280;51077;42.716;23.344;2023-05-07T06:13:50;95666.28;;;17.91;49.35
64668;BME280;51077;42.716;23.344;2023-05-07T06:16:16;95663.16;;;18.02;49.06
64668;BME280;51077;42.716;23.344;2023-05-07T06:18:41;95662.81;;;18.13;48.92
64668;BME280;51077;42.716;23.344;2023-05-07T06:21:07;95660.97;;;18.23;48.64
64668;BME280;51077;42.716;23.344;2023-05-07T06:23:32;95661.34;;;18.35;48.69
64668;BME280;51077;42.716;23.344;2023-05-07T06:25:57;95658.03;;;18.44;48.43
64668;BME280;51077;42.716;23.344;2023-05-07T06:28:23;95653.00;;;18.58;48.12
64668;BME280;51077;42.716;23.344;2023-05-07T06:30:48;95657.69;;;18.71;48.02
64668;BME280;51077;42.716;23.344;2023-05-07T06:33:15;95653.22;;;18.83;47.97
64668;BME280;51077;42.716;23.344;2023-05-07T06:35:41;95647.28;;;18.94;47.63
64668;BME280;51077;42.716;23.344;2023-05-07T06:38:06;95641.50;;;19.07;47.46
64668;BME280;51077;42.716;23.344;2023-05-07T06:40:31;95645.53;;;19.22;47.14
64668;BME280;51077;42.716;23.344;2023-05-07T06:42:57;95639.59;;;19.33;46.98
64668;BME280;51077;42.716;23.344;2023-05-07T06:45:22;95638.78;;;19.48;46.79
64668;BME280;51077;42.716;23.344;2023-05-07T06:47:48;95639.50;;;19.64;46.48
64668;BME280;51077;42.716;23.344;2023-05-07T06:50:14;95631.78;;;19.79;46.27
64668;BME280;51077;42.716;23.344;2023-05-07T06:52:41;95636.13;;;19.98;45.97
64668;BME280;51077;42.716;23.344;2023-05-07T06:55:07;95634.19;;;20.16;45.57
64668;BME280;51077;42.716;23.344;2023-05-07T06:57:33;95624.41;;;20.32;45.43
64668;BME280;51077;42.716;23.344;2023-05-07T07:00:01;95628.75;;;20.50;45.01
64668;BME280;51077;42.716;23.344;2023-05-07T07:02:26;95631.00;;;20.69;44.78
64668;BME280;51077;42.716;23.344;2023-05-07T07:04:51;95631.78;;;20.87;44.49
64668;BME280;51077;42.716;23.344;2023-05-07T07:07:17;95638.84;;;21.05;44.18
64668;BME280;51077;42.716;23.344;2023-05-07T07:09:42;95635.47;;;21.24;43.89
64668;BME280;51077;42.716;23.344;2023-05-07T07:12:07;95632.88;;;21.44;43.56
64668;BME280;51077;42.716;23.344;2023-05-07T07:14:33;95627.28;;;21.61;43.15
64668;BME280;51077;42.716;23.344;2023-05-07T07:16:58;95624.59;;;21.80;42.82
64668;BME280;51077;42.716;23.344;2023-05-07T07:19:23;95625.28;;;21.98;42.51
64668;BME280;51077;42.716;23.344;2023-05-07T07:21:49;95625.44;;;22.18;42.14
64668;BME280;51077;42.716;23.344;2023-05-07T07:24:14;95618.44;;;22.36;41.88
64668;BME280;51077;42.716;23.344;2023-05-07T07:26:46;95617.00;;;22.54;41.34
64668;BME280;51077;42.716;23.344;2023-05-07T07:29:12;95621.78;;;22.71;41.05
64668;BME280;51077;42.716;23.344;2023-05-07T07:31:37;95620.78;;;22.86;40.86
64668;BME280;51077;42.716;23.344;2023-05-07T07:34:02;95606.53;;;23.01;40.68
64668;BME280;51077;42.716;23.344;2023-05-07T07:36:28;95621.88;;;23.20;40.45
64668;BME280;51077;42.716;23.344;2023-05-07T07:38:54;95622.31;;;23.36;40.26
64668;BME280;51077;42.716;23.344;2023-05-07T07:41:19;95623.06;;;23.55;39.76
64668;BME280;51077;42.716;23.344;2023-05-07T07:43:47;95624.97;;;23.72;39.53
64668;BME280;51077;42.716;23.344;2023-05-07T07:46:12;95620.06;;;23.92;39.32
64668;BME280;51077;42.716;23.344;2023-05-07T07:48:40;95621.34;;;24.11;38.77
64668;BME280;51077;42.716;23.344;2023-05-07T07:51:06;95634.44;;;24.27;38.55
64668;BME280;51077;42.716;23.344;2023-05-07T07:53:31;95626.56;;;24.45;38.27
64668;BME280;51077;42.716;23.344;2023-05-07T07:55:57;95630.75;;;24.66;38.08
64668;BME280;51077;42.716;23.344;2023-05-07T07:58:22;95628.44;;;24.83;37.61
64668;BME280;51077;42.716;23.344;2023-05-07T08:00:49;95620.50;;;25.01;37.31
64668;BME280;51077;42.716;23.344;2023-05-07T08:03:16;95621.72;;;25.20;37.28
64668;BME280;51077;42.716;23.344;2023-05-07T08:05:44;95620.72;;;25.37;36.98
64668;BME280;51077;42.716;23.344;2023-05-07T08:08:09;95623.22;;;25.54;36.61
64668;BME280;51077;42.716;23.344;2023-05-07T08:10:35;95614.38;;;25.69;36.46
64668;BME280;51077;42.716;23.344;2023-05-07T08:13:03;95620.28;;;25.85;36.15
64668;BME280;51077;42.716;23.344;2023-05-07T08:15:29;95629.03;;;26.01;35.43
64668;BME280;51077;42.716;23.344;2023-05-07T08:17:55;95615.25;;;26.17;35.57
64668;BME280;51077;42.716;23.344;2023-05-07T08:20:22;95619.03;;;26.33;34.96
64668;BME280;51077;42.716;23.344;2023-05-07T08:22:48;95617.88;;;26.48;34.72
64668;BME280;51077;42.716;23.344;2023-05-07T08:25:13;95615.16;;;26.62;34.89
64668;BME280;51077;42.716;23.344;2023-05-07T08:27:38;95603.38;;;26.77;34.22
64668;BME280;51077;42.716;23.344;2023-05-07T08:30:04;95609.25;;;26.93;33.86
64668;BME280;51077;42.716;23.344;2023-05-07T08:32:30;95601.50;;;27.05;33.57
64668;BME280;51077;42.716;23.344;2023-05-07T08:34:55;95598.69;;;27.17;33.58
64668;BME280;51077;42.716;23.344;2023-05-07T08:37:21;95598.88;;;27.33;33.24
64668;BME280;51077;42.716;23.344;2023-05-07T08:39:46;95593.22;;;27.44;33.11
64668;BME280;51077;42.716;23.344;2023-05-07T08:42:12;95597.94;;;27.53;33.11
64668;BME280;51077;42.716;23.344;2023-05-07T08:44:39;95590.28;;;27.68;32.89
64668;BME280;51077;42.716;23.344;2023-05-07T08:47:06;95594.03;;;27.84;32.80
64668;BME280;51077;42.716;23.344;2023-05-07T08:49:33;95588.63;;;28.02;32.60
64668;BME280;51077;42.716;23.344;2023-05-07T08:51:59;95589.72;;;28.22;32.12
64668;BME280;51077;42.716;23.344;2023-05-07T08:54:26;95588.81;;;28.31;31.67
64668;BME280;51077;42.716;23.344;2023-05-07T08:56:52;95581.63;;;28.42;31.54
64668;BME280;51077;42.716;23.344;2023-05-07T08:59:18;95576.81;;;28.59;31.28
64668;BME280;51077;42.716;23.344;2023-05-07T09:01:43;95571.59;;;28.67;31.10
64668;BME280;51077;42.716;23.344;2023-05-07T09:04:13;95565.94;;;28.80;30.98
64668;BME280;51077;42.716;23.344;2023-05-07T09:06:38;95571.69;;;28.96;30.77
64668;BME280;51077;42.716;23.344;2023-05-07T09:09:10;95567.59;;;29.13;30.82
64668;BME280;51077;42.716;23.344;2023-05-07T09:11:39;95565.00;;;29.33;30.42
64668;BME280;51077;42.716;23.344;2023-05-07T09:14:06;95561.53;;;29.48;29.87
64668;BME280;51077;42.716;23.344;2023-05-07T09:16:32;95556.88;;;29.55;29.53
64668;BME280;51077;42.716;23.344;2023-05-07T09:18:59;95555.38;;;29.68;29.52
64668;BME280;51077;42.716;23.344;2023-05-07T09:21:25;95553.22;;;29.82;29.26
64668;BME280;51077;42.716;23.344;2023-05-07T09:23:53;95552.50;;;29.97;29.43
64668;BME280;51077;42.716;23.344;2023-05-07T09:26:23;95553.66;;;30.22;28.52
64668;BME280;51077;42.716;23.344;2023-05-07T09:28:48;95553.72;;;30.24;28.81
64668;BME280;51077;42.716;23.344;2023-05-07T09:31:14;95546.88;;;30.45;28.46
64668;BME280;51077;42.716;23.344;2023-05-07T09:33:40;95552.16;;;30.52;28.12
64668;BME280;51077;42.716;23.344;2023-05-07T09:36:06;95546.94;;;30.63;28.10
64668;BME280;51077;42.716;23.344;2023-05-07T09:38:33;95541.50;;;30.69;27.55
64668;BME280;51077;42.716;23.344;2023-05-07T09:43:32;95542.06;;;30.81;27.03
64668;BME280;51077;42.716;23.344;2023-05-07T09:45:59;95528.25;;;30.89;26.94
64668;BME280;51077;42.716;23.344;2023-05-07T09:48:29;95524.19;;;30.94;26.51
64668;BME280;51077;42.716;23.344;2023-05-07T09:50:56;95521.06;;;31.04;26.35
64668;BME280;51077;42.716;23.344;2023-05-07T09:53:25;95512.88;;;31.12;26.52
64668;BME280;51077;42.716;23.344;2023-05-07T09:55:52;95518.53;;;31.28;26.25
64668;BME280;51077;42.716;23.344;2023-05-07T09:58:18;95523.63;;;31.49;25.96
64668;BME280;51077;42.716;23.344;2023-05-07T10:00:44;95522.06;;;31.64;25.92
64668;BME280;51077;42.716;23.344;2023-05-07T10:03:11;95512.25;;;31.85;25.91
64668;BME280;51077;42.716;23.344;2023-05-07T10:05:38;95512.13;;;32.01;25.44
64668;BME280;51077;42.716;23.344;2023-05-07T10:08:04;95512.50;;;32.11;25.23
64668;BME280;51077;42.716;23.344;2023-05-07T10:10:32;95516.78;;;31.92;25.83
64668;BME280;51077;42.716;23.344;2023-05-07T10:12:58;95517.09;;;31.65;25.34
64668;BME280;51077;42.716;23.344;2023-05-07T10:15:24;95511.00;;;31.35;26.05
64668;BME280;51077;42.716;23.344;2023-05-07T10:17:51;95503.41;;;31.23;25.45
64668;BME280;51077;42.716;23.344;2023-05-07T10:20:18;95499.38;;;31.28;26.09
64668;BME280;51077;42.716;23.344;2023-05-07T10:22:47;95489.66;;;31.51;25.80
64668;BME280;51077;42.716;23.344;2023-05-07T10:25:28;95489.34;;;31.81;24.75
64668;BME280;51077;42.716;23.344;2023-05-07T10:28:01;95486.50;;;31.99;24.95
64668;BME280;51077;42.716;23.344;2023-05-07T10:33:15;95483.91;;;32.45;24.33
64668;BME280;51077;42.716;23.344;2023-05-07T10:35:43;95483.56;;;32.76;23.92
64668;BME280;51077;42.716;23.344;2023-05-07T10:38:10;95480.19;;;33.02;23.74
64668;BME280;51077;42.716;23.344;2023-05-07T10:40:36;95477.34;;;33.24;23.22
64668;BME280;51077;42.716;23.344;2023-05-07T10:43:04;95472.22;;;33.42;23.13
64668;BME280;51077;42.716;23.344;2023-05-07T10:45:32;95469.34;;;33.64;23.06
64668;BME280;51077;42.716;23.344;2023-05-07T10:48:14;95463.47;;;33.82;22.86
64668;BME280;51077;42.716;23.344;2023-05-07T10:50:44;95469.53;;;33.94;22.38
64668;BME280;51077;42.716;23.344;2023-05-07T10:53:21;95466.22;;;34.02;22.74
64668;BME280;51077;42.716;23.344;2023-05-07T10:58:43;95456.34;;;34.05;22.91
64668;BME280;51077;42.716;23.344;2023-05-07T11:01:09;95456.94;;;34.01;22.15
64668;BME280;51077;42.716;23.344;2023-05-07T11:04:14;95465.31;;;34.21;21.95
64668;BME280;51077;42.716;23.344;2023-05-07T11:06:40;95467.75;;;34.57;21.35
64668;BME280;51077;42.716;23.344;2023-05-07T11:09:06;95464.56;;;34.71;21.36
64668;BME280;51077;42.716;23.344;2023-05-07T11:11:47;95456.34;;;34.85;21.00
64668;BME280;51077;42.716;23.344;2023-05-07T11:14:43;95461.13;;;35.05;20.66
64668;BME280;51077;42.716;23.344;2023-05-07T11:17:09;95466.31;;;35.12;20.71
64668;BME280;51077;42.716;23.344;2023-05-07T11:19:50;95459.25;;;35.15;20.50
64668;BME280;51077;42.716;23.344;2023-05-07T11:24:58;95454.66;;;35.32;19.85
64668;BME280;51077;42.716;23.344;2023-05-07T11:27:25;95443.34;;;35.36;19.72
64668;BME280;51077;42.716;23.344;2023-05-07T11:29:51;95447.16;;;35.47;19.11
64668;BME280;51077;42.716;23.344;2023-05-07T11:32:22;95436.47;;;35.47;18.99
64668;BME280;51077;42.716;23.344;2023-05-07T11:34:54;95440.94;;;35.57;18.74
64668;BME280;51077;42.716;23.344;2023-05-07T11:37:21;95440.28;;;35.58;19.18
64668;BME280;51077;42.716;23.344;2023-05-07T11:39:47;95437.47;;;35.60;18.81
64668;BME280;51077;42.716;23.344;2023-05-07T11:42:34;95433.72;;;35.52;19.22
64668;BME280;51077;42.716;23.344;2023-05-07T11:45:00;95429.97;;;35.45;18.79
64668;BME280;51077;42.716;23.344;2023-05-07T11:47:30;95432.97;;;35.51;18.56
64668;BME280;51077;42.716;23.344;2023-05-07T11:49:55;95428.56;;;35.46;18.96
64668;BME280;51077;42.716;23.344;2023-05-07T11:52:23;95424.50;;;35.55;18.94
64668;BME280;51077;42.716;23.344;2023-05-07T11:54:53;95429.59;;;35.59;19.08
64668;BME280;51077;42.716;23.344;2023-05-07T11:57:20;95422.69;;;35.70;18.46
64668;BME280;51077;42.716;23.344;2023-05-07T11:59:46;95428.09;;;35.90;18.35
64668;BME280;51077;42.716;23.344;2023-05-07T12:02:17;95426.75;;;35.93;17.99
64668;BME280;51077;42.716;23.344;2023-05-07T12:04:42;95429.09;;;36.03;17.56
64668;BME280;51077;42.716;23.344;2023-05-07T12:07:14;95418.41;;;36.03;17.14
64668;BME280;51077;42.716;23.344;2023-05-07T12:09:45;95410.72;;;35.78;17.40
64668;BME280;51077;42.716;23.344;2023-05-07T12:12:11;95413.22;;;35.95;17.53
64668;BME280;51077;42.716;23.344;2023-05-07T12:14:41;95421.66;;;35.89;17.09
64668;BME280;51077;42.716;23.344;2023-05-07T12:17:08;95415.75;;;35.79;17.42
64668;BME280;51077;42.716;23.344;2023-05-07T12:19:37;95406.66;;;35.55;17.90
64668;BME280;51077;42.716;23.344;2023-05-07T12:22:04;95401.78;;;35.61;17.50
64668;BME280;51077;42.716;23.344;2023-05-07T12:24:46;95393.59;;;35.45;17.85
64668;BME280;51077;42.716;23.344;2023-05-07T12:27:11;95402.00;;;35.39;17.43
64668;BME280;51077;42.716;23.344;2023-05-07T12:29:47;95395.44;;;35.33;17.72
64668;BME280;51077;42.716;23.344;2023-05-07T12:32:14;95391.59;;;35.20;18.12
64668;BME280;51077;42.716;23.344;2023-05-07T12:34:40;95393.56;;;35.13;17.89
64668;BME280;51077;42.716;23.344;2023-05-07T12:37:05;95382.72;;;35.06;18.27
64668;BME280;51077;42.716;23.344;2023-05-07T12:39:31;95378.56;;;35.11;18.28
64668;BME280;51077;42.716;23.344;2023-05-07T12:41:58;95377.06;;;35.08;18.14
64668;BME280;51077;42.716;23.344;2023-05-07T12:44:32;95380.22;;;35.22;18.01
64668;BME280;51077;42.716;23.344;2023-05-07T12:46:58;95366.69;;;35.22;17.96
64668;BME280;51077;42.716;23.344;2023-05-07T12:49:23;95366.91;;;35.33;18.09
64668;BME280;51077;42.716;23.344;2023-05-07T12:51:50;95362.53;;;35.28;17.94
64668;BME280;51077;42.716;23.344;2023-05-07T12:54:32;95356.47;;;35.11;17.77
64668;BME280;51077;42.716;23.344;2023-05-07T12:57:04;95355.28;;;35.22;17.27
64668;BME280;51077;42.716;23.344;2023-05-07T12:59:37;95349.59;;;35.22;17.78